sensor_id;sensor_type;location;lat;lon;timestamp;P1;durP1;ratioP1;P2;durP2;ratioP2
23072;SDS011;67971;51.046;3.732;2023-06-22T00:00:56;12.57;;;5.60;;
23072;SDS011;67971;51.046;3.732;2023-06-22T00:03:25;10.10;;;6.45;;
23072;SDS011;67971;51.046;3.732;2023-06-22T00:05:51;10.02;;;6.32;;
23072;SDS011;67971;51.046;3.732;2023-06-22T00:08:17;10.35;;;6.88;;
23072;SDS011;67971;51.046;3.732;2023-06-22T00:10:43;12.57;;;7.53;;
23072;SDS011;67971;51.046;3.732;2023-06-22T00:13:10;9.70;;;7.55;;
23072;SDS011;67971;51.046;3.732;2023-06-22T00:15:37;14.95;;;7.90;;
23072;SDS011;67971;51.046;3.732;2023-06-22T00:18:07;14.98;;;6.88;;
23072;SDS011;67971;51.046;3.732;2023-06-22T00:20:34;14.07;;;7.70;;
23072;SDS011;67971;51.046;3.732;2023-06-22T00:23:02;10.20;;;7.35;;
23072;SDS011;67971;51.046;3.732;2023-06-22T00:25:36;10.25;;;8.15;;
23072;SDS011;67971;51.046;3.732;2023-06-22T00:28:03;12.85;;;8.35;;
23072;SDS011;67971;51.046;3.732;2023-06-22T00:30:30;12.55;;;8.45;;
23072;SDS011;67971;51.046;3.732;2023-06-22T00:32:56;17.27;;;11.20;;
23072;SDS011;67971;51.046;3.732;2023-06-22T00:35:23;17.58;;;10.50;;
23072;SDS011;67971;51.046;3.732;2023-06-22T00:37:53;19.02;;;10.20;;
23072;SDS011;67971;51.046;3.732;2023-06-22T00:40:32;14.55;;;10.60;;
23072;SDS011;67971;51.046;3.732;2023-06-22T00:42:59;18.58;;;10.10;;
23072;SDS011;67971;51.046;3.732;2023-06-22T00:45:25;17.30;;;10.32;;
23072;SDS011;67971;51.046;3.732;2023-06-22T00:47:52;12.93;;;9.70;;
23072;SDS011;67971;51.046;3.732;2023-06-22T00:50:22;14.05;;;10.05;;
23072;SDS011;67971;51.046;3.732;2023-06-22T00:52:53;14.70;;;9.63;;
23072;SDS011;67971;51.046;3.732;2023-06-22T00:55:24;14.18;;;10.30;;
23072;SDS011;67971;51.046;3.732;2023-06-22T00:57:51;14.35;;;9.82;;
23072;SDS011;67971;51.046;3.732;2023-06-22T01:00:21;15.02;;;11.30;;
23072;SDS011;67971;51.046;3.732;2023-06-22T01:02:50;13.60;;;9.88;;
23072;SDS011;67971;51.046;3.732;2023-06-22T01:05:21;16.15;;;11.13;;
23072;SDS011;67971;51.046;3.732;2023-06-22T01:08:00;14.32;;;10.77;;
23072;SDS011;67971;51.046;3.732;2023-06-22T01:10:48;14.75;;;9.57;;
23072;SDS011;67971;51.046;3.732;2023-06-22T01:18:45;16.30;;;8.85;;
23072;SDS011;67971;51.046;3.732;2023-06-22T01:21:14;13.40;;;8.90;;
23072;SDS011;67971;51.046;3.732;2023-06-22T01:28:53;15.18;;;8.63;;
23072;SDS011;67971;51.046;3.732;2023-06-22T01:31:26;12.43;;;8.55;;
23072;SDS011;67971;51.046;3.732;2023-06-22T01:33:56;13.55;;;8.98;;
23072;SDS011;67971;51.046;3.732;2023-06-22T01:36:24;13.80;;;8.90;;
23072;SDS011;67971;51.046;3.732;2023-06-22T01:38:52;12.05;;;8.68;;
23072;SDS011;67971;51.046;3.732;2023-06-22T01:41:17;14.80;;;9.63;;
23072;SDS011;67971;51.046;3.732;2023-06-22T01:43:45;12.57;;;8.70;;
23072;SDS011;67971;51.046;3.732;2023-06-22T01:46:12;12.77;;;9.15;;
23072;SDS011;67971;51.046;3.732;2023-06-22T01:48:39;12.20;;;9.77;;
23072;SDS011;67971;51.046;3.732;2023-06-22T01:51:05;15.00;;;9.27;;
23072;SDS011;67971;51.046;3.732;2023-06-22T01:53:31;14.65;;;9.18;;
23072;SDS011;67971;51.046;3.732;2023-06-22T01:55:57;16.70;;;9.65;;
23072;SDS011;67971;51.046;3.732;2023-06-22T01:58:25;11.15;;;9.00;;
23072;SDS011;67971;51.046;3.732;2023-06-22T02:00:56;13.27;;;8.73;;
23072;SDS011;67971;51.046;3.732;2023-06-22T02:03:32;11.85;;;9.23;;
23072;SDS011;67971;51.046;3.732;2023-06-22T02:06:06;14.57;;;8.68;;
23072;SDS011;67971;51.046;3.732;2023-06-22T02:08:48;14.10;;;8.60;;
23072;SDS011;67971;51.046;3.732;2023-06-22T02:11:16;11.25;;;8.13;;
23072;SDS011;67971;51.046;3.732;2023-06-22T02:13:45;14.68;;;8.93;;
23072;SDS011;67971;51.046;3.732;2023-06-22T02:16:11;11.82;;;8.00;;
23072;SDS011;67971;51.046;3.732;2023-06-22T02:18:38;13.60;;;8.13;;
23072;SDS011;67971;51.046;3.732;2023-06-22T02:21:05;9.23;;;7.78;;
23072;SDS011;67971;51.046;3.732;2023-06-22T02:23:31;10.63;;;8.63;;
23072;SDS011;67971;51.046;3.732;2023-06-22T02:26:00;10.98;;;8.23;;
23072;SDS011;67971;51.046;3.732;2023-06-22T02:28:28;11.27;;;8.88;;
23072;SDS011;67971;51.046;3.732;2023-06-22T02:30:54;13.15;;;9.07;;
23072;SDS011;67971;51.046;3.732;2023-06-22T02:33:19;12.73;;;9.07;;
23072;SDS011;67971;51.046;3.732;2023-06-22T02:35:45;9.88;;;8.00;;
23072;SDS011;67971;51.046;3.732;2023-06-22T02:38:14;10.70;;;8.93;;
23072;SDS011;67971;51.046;3.732;2023-06-22T02:40:40;14.65;;;8.77;;
23072;SDS011;67971;51.046;3.732;2023-06-22T02:43:06;11.43;;;8.02;;
23072;SDS011;67971;51.046;3.732;2023-06-22T02:45:31;11.13;;;8.32;;
23072;SDS011;67971;51.046;3.732;2023-06-22T02:47:57;12.10;;;9.30;;
23072;SDS011;67971;51.046;3.732;2023-06-22T02:50:23;15.20;;;8.73;;
23072;SDS011;67971;51.046;3.732;2023-06-22T02:52:48;11.15;;;8.85;;
23072;SDS011;67971;51.046;3.732;2023-06-22T02:55:14;16.83;;;9.35;;
23072;SDS011;67971;51.046;3.732;2023-06-22T02:57:40;15.27;;;8.73;;
23072;SDS011;67971;51.046;3.732;2023-06-22T03:00:09;11.32;;;8.15;;
23072;SDS011;67971;51.046;3.732;2023-06-22T03:02:45;10.35;;;7.78;;
23072;SDS011;67971;51.046;3.732;2023-06-22T03:05:11;13.38;;;9.18;;
23072;SDS011;67971;51.046;3.732;2023-06-22T03:07:42;11.95;;;8.27;;
23072;SDS011;67971;51.046;3.732;2023-06-22T03:10:08;12.60;;;7.80;;
23072;SDS011;67971;51.046;3.732;2023-06-22T03:12:35;13.57;;;8.23;;
23072;SDS011;67971;51.046;3.732;2023-06-22T03:15:01;9.32;;;8.27;;
23072;SDS011;67971;51.046;3.732;2023-06-22T03:17:27;11.77;;;7.80;;
23072;SDS011;67971;51.046;3.732;2023-06-22T03:19:53;12.57;;;7.65;;
23072;SDS011;67971;51.046;3.732;2023-06-22T03:22:19;12.32;;;7.50;;
23072;SDS011;67971;51.046;3.732;2023-06-22T03:24:45;11.25;;;7.30;;
23072;SDS011;67971;51.046;3.732;2023-06-22T03:27:11;12.48;;;7.90;;
23072;SDS011;67971;51.046;3.732;2023-06-22T03:29:36;12.07;;;7.15;;
23072;SDS011;67971;51.046;3.732;2023-06-22T03:32:02;15.45;;;7.95;;
23072;SDS011;67971;51.046;3.732;2023-06-22T03:34:29;12.52;;;8.02;;
23072;SDS011;67971;51.046;3.732;2023-06-22T03:36:58;13.05;;;8.07;;
23072;SDS011;67971;51.046;3.732;2023-06-22T03:39:24;17.98;;;8.50;;
23072;SDS011;67971;51.046;3.732;2023-06-22T03:41:50;11.38;;;8.05;;
23072;SDS011;67971;51.046;3.732;2023-06-22T03:44:15;11.63;;;7.60;;
23072;SDS011;67971;51.046;3.732;2023-06-22T03:46:41;10.45;;;6.93;;
23072;SDS011;67971;51.046;3.732;2023-06-22T03:49:07;19.52;;;8.50;;
23072;SDS011;67971;51.046;3.732;2023-06-22T03:51:32;20.65;;;8.70;;
23072;SDS011;67971;51.046;3.732;2023-06-22T03:53:58;25.95;;;10.02;;
23072;SDS011;67971;51.046;3.732;2023-06-22T03:56:24;29.52;;;10.43;;
23072;SDS011;67971;51.046;3.732;2023-06-22T03:58:49;19.00;;;9.30;;
23072;SDS011;67971;51.046;3.732;2023-06-22T04:01:15;35.33;;;11.48;;
23072;SDS011;67971;51.046;3.732;2023-06-22T04:03:42;30.60;;;10.70;;
23072;SDS011;67971;51.046;3.732;2023-06-22T04:06:08;30.83;;;11.48;;
23072;SDS011;67971;51.046;3.732;2023-06-22T04:08:33;27.23;;;10.00;;
23072;SDS011;67971;51.046;3.732;2023-06-22T04:10:59;19.77;;;8.82;;
23072;SDS011;67971;51.046;3.732;2023-06-22T04:13:24;25.60;;;10.43;;
23072;SDS011;67971;51.046;3.732;2023-06-22T04:15:50;35.58;;;12.15;;
23072;SDS011;67971;51.046;3.732;2023-06-22T04:18:16;29.40;;;11.75;;
23072;SDS011;67971;51.046;3.732;2023-06-22T04:20:41;32.42;;;11.18;;
23072;SDS011;67971;51.046;3.732;2023-06-22T04:23:07;32.75;;;12.52;;
23072;SDS011;67971;51.046;3.732;2023-06-22T04:25:33;27.08;;;11.60;;
23072;SDS011;67971;51.046;3.732;2023-06-22T04:27:59;36.70;;;12.52;;
23072;SDS011;67971;51.046;3.732;2023-06-22T04:30:28;33.13;;;12.23;;
23072;SDS011;67971;51.046;3.732;2023-06-22T04:32:56;35.42;;;12.27;;
23072;SDS011;67971;51.046;3.732;2023-06-22T04:35:25;41.30;;;12.23;;
23072;SDS011;67971;51.046;3.732;2023-06-22T04:37:52;32.67;;;12.77;;
23072;SDS011;67971;51.046;3.732;2023-06-22T04:40:20;40.45;;;14.30;;
23072;SDS011;67971;51.046;3.732;2023-06-22T04:42:49;50.55;;;18.40;;
23072;SDS011;67971;51.046;3.732;2023-06-22T04:45:19;43.28;;;17.27;;
23072;SDS011;67971;51.046;3.732;2023-06-22T04:47:45;41.67;;;16.13;;
23072;SDS011;67971;51.046;3.732;2023-06-22T04:50:11;44.58;;;14.77;;
23072;SDS011;67971;51.046;3.732;2023-06-22T04:52:37;30.92;;;14.63;;
23072;SDS011;67971;51.046;3.732;2023-06-22T04:55:03;26.85;;;12.52;;
23072;SDS011;67971;51.046;3.732;2023-06-22T04:57:29;33.90;;;13.40;;
23072;SDS011;67971;51.046;3.732;2023-06-22T04:59:59;22.25;;;13.23;;
23072;SDS011;67971;51.046;3.732;2023-06-22T05:02:38;21.88;;;12.73;;
23072;SDS011;67971;51.046;3.732;2023-06-22T05:05:04;25.73;;;12.18;;
23072;SDS011;67971;51.046;3.732;2023-06-22T05:07:35;26.40;;;12.65;;
23072;SDS011;67971;51.046;3.732;2023-06-22T05:10:02;26.92;;;11.95;;
23072;SDS011;67971;51.046;3.732;2023-06-22T05:12:28;21.55;;;12.52;;
23072;SDS011;67971;51.046;3.732;2023-06-22T05:14:54;21.15;;;12.63;;
23072;SDS011;67971;51.046;3.732;2023-06-22T05:17:20;23.20;;;12.98;;
23072;SDS011;67971;51.046;3.732;2023-06-22T05:19:46;21.15;;;11.90;;
23072;SDS011;67971;51.046;3.732;2023-06-22T05:22:15;24.60;;;13.15;;
23072;SDS011;67971;51.046;3.732;2023-06-22T05:24:41;22.45;;;12.43;;
23072;SDS011;67971;51.046;3.732;2023-06-22T05:27:08;18.00;;;11.90;;
23072;SDS011;67971;51.046;3.732;2023-06-22T05:29:34;23.55;;;13.43;;
23072;SDS011;67971;51.046;3.732;2023-06-22T05:32:00;20.42;;;12.00;;
23072;SDS011;67971;51.046;3.732;2023-06-22T05:34:26;28.30;;;13.15;;
23072;SDS011;67971;51.046;3.732;2023-06-22T05:36:52;22.58;;;13.32;;
23072;SDS011;67971;51.046;3.732;2023-06-22T05:39:17;25.83;;;13.57;;
23072;SDS011;67971;51.046;3.732;2023-06-22T05:41:44;31.92;;;14.57;;
23072;SDS011;67971;51.046;3.732;2023-06-22T05:44:10;26.33;;;15.52;;
23072;SDS011;67971;51.046;3.732;2023-06-22T05:46:36;24.38;;;14.32;;
23072;SDS011;67971;51.046;3.732;2023-06-22T05:49:05;25.35;;;14.32;;
23072;SDS011;67971;51.046;3.732;2023-06-22T05:51:31;24.65;;;14.30;;
23072;SDS011;67971;51.046;3.732;2023-06-22T05:53:56;23.98;;;14.00;;
23072;SDS011;67971;51.046;3.732;2023-06-22T05:56:22;18.95;;;13.43;;
23072;SDS011;67971;51.046;3.732;2023-06-22T05:58:48;18.98;;;13.45;;
23072;SDS011;67971;51.046;3.732;2023-06-22T06:01:13;19.48;;;14.02;;
23072;SDS011;67971;51.046;3.732;2023-06-22T06:03:40;19.20;;;14.30;;
23072;SDS011;67971;51.046;3.732;2023-06-22T06:06:06;22.08;;;13.15;;
23072;SDS011;67971;51.046;3.732;2023-06-22T06:08:32;18.10;;;13.57;;
23072;SDS011;67971;51.046;3.732;2023-06-22T06:10:58;23.98;;;15.63;;
23072;SDS011;67971;51.046;3.732;2023-06-22T06:13:24;22.33;;;15.10;;
23072;SDS011;67971;51.046;3.732;2023-06-22T06:15:49;20.73;;;15.15;;
23072;SDS011;67971;51.046;3.732;2023-06-22T06:18:20;17.55;;;14.57;;
23072;SDS011;67971;51.046;3.732;2023-06-22T06:20:46;20.40;;;16.08;;
23072;SDS011;67971;51.046;3.732;2023-06-22T06:23:11;22.50;;;15.88;;
23072;SDS011;67971;51.046;3.732;2023-06-22T06:25:37;25.10;;;14.45;;
23072;SDS011;67971;51.046;3.732;2023-06-22T06:28:03;25.85;;;16.13;;
23072;SDS011;67971;51.046;3.732;2023-06-22T06:30:29;22.08;;;17.38;;
23072;SDS011;67971;51.046;3.732;2023-06-22T06:32:55;23.17;;;17.00;;
23072;SDS011;67971;51.046;3.732;2023-06-22T06:35:21;23.50;;;17.45;;
23072;SDS011;67971;51.046;3.732;2023-06-22T06:37:48;25.35;;;17.23;;
23072;SDS011;67971;51.046;3.732;2023-06-22T06:40:16;19.83;;;16.70;;
23072;SDS011;67971;51.046;3.732;2023-06-22T06:42:46;22.38;;;17.45;;
23072;SDS011;67971;51.046;3.732;2023-06-22T06:45:15;25.02;;;18.15;;
23072;SDS011;67971;51.046;3.732;2023-06-22T06:47:42;24.10;;;16.90;;
23072;SDS011;67971;51.046;3.732;2023-06-22T06:50:08;26.88;;;17.27;;
23072;SDS011;67971;51.046;3.732;2023-06-22T06:52:34;28.58;;;18.98;;
23072;SDS011;67971;51.046;3.732;2023-06-22T06:55:00;25.67;;;18.85;;
23072;SDS011;67971;51.046;3.732;2023-06-22T06:57:26;24.23;;;18.95;;
23072;SDS011;67971;51.046;3.732;2023-06-22T06:59:54;23.35;;;19.15;;
23072;SDS011;67971;51.046;3.732;2023-06-22T07:02:21;26.20;;;18.58;;
23072;SDS011;67971;51.046;3.732;2023-06-22T07:04:47;22.05;;;18.83;;
23072;SDS011;67971;51.046;3.732;2023-06-22T07:07:13;25.42;;;18.45;;
23072;SDS011;67971;51.046;3.732;2023-06-22T07:09:39;24.90;;;19.50;;
23072;SDS011;67971;51.046;3.732;2023-06-22T07:12:05;24.75;;;18.77;;
23072;SDS011;67971;51.046;3.732;2023-06-22T07:14:31;25.13;;;19.50;;
23072;SDS011;67971;51.046;3.732;2023-06-22T07:16:57;24.92;;;18.77;;
23072;SDS011;67971;51.046;3.732;2023-06-22T07:19:26;24.17;;;18.85;;
23072;SDS011;67971;51.046;3.732;2023-06-22T07:21:53;25.10;;;19.60;;
23072;SDS011;67971;51.046;3.732;2023-06-22T07:24:19;26.55;;;20.00;;
23072;SDS011;67971;51.046;3.732;2023-06-22T07:26:46;25.92;;;19.38;;
23072;SDS011;67971;51.046;3.732;2023-06-22T07:29:13;26.17;;;20.02;;
23072;SDS011;67971;51.046;3.732;2023-06-22T07:31:39;23.90;;;18.95;;
23072;SDS011;67971;51.046;3.732;2023-06-22T07:34:06;26.38;;;20.33;;
23072;SDS011;67971;51.046;3.732;2023-06-22T07:36:31;22.33;;;18.42;;
23072;SDS011;67971;51.046;3.732;2023-06-22T07:38:57;22.95;;;19.15;;
23072;SDS011;67971;51.046;3.732;2023-06-22T07:41:23;21.45;;;19.10;;
23072;SDS011;67971;51.046;3.732;2023-06-22T07:43:48;24.65;;;17.67;;
23072;SDS011;67971;51.046;3.732;2023-06-22T07:46:15;25.65;;;18.80;;
23072;SDS011;67971;51.046;3.732;2023-06-22T07:48:40;23.40;;;18.55;;
23072;SDS011;67971;51.046;3.732;2023-06-22T07:51:08;26.40;;;18.95;;
23072;SDS011;67971;51.046;3.732;2023-06-22T07:53:34;24.08;;;19.52;;
23072;SDS011;67971;51.046;3.732;2023-06-22T07:56:01;22.92;;;17.85;;
23072;SDS011;67971;51.046;3.732;2023-06-22T07:58:31;23.23;;;17.50;;
23072;SDS011;67971;51.046;3.732;2023-06-22T08:00:58;23.15;;;17.60;;
23072;SDS011;67971;51.046;3.732;2023-06-22T08:03:23;23.02;;;17.08;;
23072;SDS011;67971;51.046;3.732;2023-06-22T08:05:49;21.95;;;17.17;;
23072;SDS011;67971;51.046;3.732;2023-06-22T08:08:15;24.92;;;17.45;;
23072;SDS011;67971;51.046;3.732;2023-06-22T08:10:41;20.13;;;17.67;;
23072;SDS011;67971;51.046;3.732;2023-06-22T08:13:07;22.27;;;16.65;;
23072;SDS011;67971;51.046;3.732;2023-06-22T08:15:33;24.27;;;16.60;;
23072;SDS011;67971;51.046;3.732;2023-06-22T08:17:59;21.63;;;15.63;;
23072;SDS011;67971;51.046;3.732;2023-06-22T08:20:25;27.98;;;17.70;;
23072;SDS011;67971;51.046;3.732;2023-06-22T08:22:51;66.70;;;17.45;;
23072;SDS011;67971;51.046;3.732;2023-06-22T08:25:19;28.52;;;15.50;;
23072;SDS011;67971;51.046;3.732;2023-06-22T08:27:46;25.20;;;15.80;;
23072;SDS011;67971;51.046;3.732;2023-06-22T08:30:13;19.75;;;15.15;;
23072;SDS011;67971;51.046;3.732;2023-06-22T08:32:39;23.45;;;14.55;;
23072;SDS011;67971;51.046;3.732;2023-06-22T08:35:05;24.23;;;17.55;;
23072;SDS011;67971;51.046;3.732;2023-06-22T08:37:33;20.85;;;16.90;;
23072;SDS011;67971;51.046;3.732;2023-06-22T08:40:01;22.55;;;18.10;;
23072;SDS011;67971;51.046;3.732;2023-06-22T08:42:31;23.25;;;18.67;;
23072;SDS011;67971;51.046;3.732;2023-06-22T08:44:56;33.97;;;19.52;;
23072;SDS011;67971;51.046;3.732;2023-06-22T08:47:22;27.45;;;21.40;;
23072;SDS011;67971;51.046;3.732;2023-06-22T08:49:48;33.83;;;24.13;;
23072;SDS011;67971;51.046;3.732;2023-06-22T08:52:14;29.98;;;24.02;;
23072;SDS011;67971;51.046;3.732;2023-06-22T08:54:40;34.63;;;23.52;;
23072;SDS011;67971;51.046;3.732;2023-06-22T08:57:05;29.50;;;22.13;;
23072;SDS011;67971;51.046;3.732;2023-06-22T08:59:31;31.70;;;23.02;;
23072;SDS011;67971;51.046;3.732;2023-06-22T09:01:57;28.05;;;22.35;;
23072;SDS011;67971;51.046;3.732;2023-06-22T09:04:23;30.98;;;24.90;;
23072;SDS011;67971;51.046;3.732;2023-06-22T09:06:49;34.47;;;24.48;;
23072;SDS011;67971;51.046;3.732;2023-06-22T09:09:17;28.95;;;21.40;;
23072;SDS011;67971;51.046;3.732;2023-06-22T09:11:43;25.90;;;19.75;;
23072;SDS011;67971;51.046;3.732;2023-06-22T09:14:09;46.63;;;21.80;;
23072;SDS011;67971;51.046;3.732;2023-06-22T09:16:35;51.35;;;21.40;;
23072;SDS011;67971;51.046;3.732;2023-06-22T09:19:01;57.35;;;22.63;;
23072;SDS011;67971;51.046;3.732;2023-06-22T09:21:27;25.25;;;18.23;;
23072;SDS011;67971;51.046;3.732;2023-06-22T09:23:54;25.38;;;17.80;;
23072;SDS011;67971;51.046;3.732;2023-06-22T09:26:20;20.95;;;16.02;;
23072;SDS011;67971;51.046;3.732;2023-06-22T09:28:46;25.38;;;17.05;;
23072;SDS011;67971;51.046;3.732;2023-06-22T09:31:12;89.03;;;24.17;;
23072;SDS011;67971;51.046;3.732;2023-06-22T09:33:39;32.05;;;17.65;;
23072;SDS011;67971;51.046;3.732;2023-06-22T09:36:05;33.10;;;18.98;;
23072;SDS011;67971;51.046;3.732;2023-06-22T09:38:37;435.65;;;66.35;;
23072;SDS011;67971;51.046;3.732;2023-06-22T09:41:03;29.60;;;19.73;;
23072;SDS011;67971;51.046;3.732;2023-06-22T09:43:31;131.57;;;29.08;;
23072;SDS011;67971;51.046;3.732;2023-06-22T09:45:57;31.35;;;16.65;;
23072;SDS011;67971;51.046;3.732;2023-06-22T09:48:23;30.90;;;17.42;;
23072;SDS011;67971;51.046;3.732;2023-06-22T09:50:49;23.80;;;15.75;;
23072;SDS011;67971;51.046;3.732;2023-06-22T09:53:14;21.33;;;13.77;;
23072;SDS011;67971;51.046;3.732;2023-06-22T09:55:40;19.48;;;12.90;;
23072;SDS011;67971;51.046;3.732;2023-06-22T09:58:06;21.63;;;12.07;;
23072;SDS011;67971;51.046;3.732;2023-06-22T10:00:31;19.85;;;12.57;;
23072;SDS011;67971;51.046;3.732;2023-06-22T10:02:57;17.55;;;12.52;;
23072;SDS011;67971;51.046;3.732;2023-06-22T10:05:23;19.00;;;12.77;;
23072;SDS011;67971;51.046;3.732;2023-06-22T10:07:49;22.25;;;15.45;;
23072;SDS011;67971;51.046;3.732;2023-06-22T10:10:15;27.15;;;14.10;;
23072;SDS011;67971;51.046;3.732;2023-06-22T10:12:42;21.45;;;15.30;;
23072;SDS011;67971;51.046;3.732;2023-06-22T10:15:09;22.95;;;16.15;;
23072;SDS011;67971;51.046;3.732;2023-06-22T10:17:35;24.60;;;15.23;;
23072;SDS011;67971;51.046;3.732;2023-06-22T10:20:00;27.38;;;17.70;;
23072;SDS011;67971;51.046;3.732;2023-06-22T10:22:36;25.55;;;17.25;;
23072;SDS011;67971;51.046;3.732;2023-06-22T10:25:03;32.45;;;18.35;;
23072;SDS011;67971;51.046;3.732;2023-06-22T10:27:29;32.47;;;19.42;;
23072;SDS011;67971;51.046;3.732;2023-06-22T10:29:54;28.77;;;18.33;;
23072;SDS011;67971;51.046;3.732;2023-06-22T10:32:20;28.55;;;19.70;;
23072;SDS011;67971;51.046;3.732;2023-06-22T10:34:45;25.27;;;19.23;;
23072;SDS011;67971;51.046;3.732;2023-06-22T10:37:11;30.13;;;20.58;;
23072;SDS011;67971;51.046;3.732;2023-06-22T10:39:37;31.73;;;19.85;;
23072;SDS011;67971;51.046;3.732;2023-06-22T10:42:03;29.17;;;19.73;;
23072;SDS011;67971;51.046;3.732;2023-06-22T10:44:29;30.33;;;19.38;;
23072;SDS011;67971;51.046;3.732;2023-06-22T10:46:54;27.67;;;18.85;;
23072;SDS011;67971;51.046;3.732;2023-06-22T10:49:20;30.20;;;18.23;;
23072;SDS011;67971;51.046;3.732;2023-06-22T10:51:45;26.50;;;17.60;;
23072;SDS011;67971;51.046;3.732;2023-06-22T10:54:11;23.80;;;18.20;;
23072;SDS011;67971;51.046;3.732;2023-06-22T10:56:38;23.45;;;17.10;;
23072;SDS011;67971;51.046;3.732;2023-06-22T10:59:05;23.70;;;16.40;;
23072;SDS011;67971;51.046;3.732;2023-06-22T11:01:30;20.30;;;15.77;;
23072;SDS011;67971;51.046;3.732;2023-06-22T11:03:56;18.30;;;13.73;;
23072;SDS011;67971;51.046;3.732;2023-06-22T11:06:22;16.27;;;13.15;;
23072;SDS011;67971;51.046;3.732;2023-06-22T11:08:48;19.27;;;13.32;;
23072;SDS011;67971;51.046;3.732;2023-06-22T11:11:13;19.77;;;13.70;;
23072;SDS011;67971;51.046;3.732;2023-06-22T11:13:42;21.55;;;15.32;;
23072;SDS011;67971;51.046;3.732;2023-06-22T11:16:08;22.30;;;15.90;;
23072;SDS011;67971;51.046;3.732;2023-06-22T11:18:33;20.08;;;15.25;;
23072;SDS011;67971;51.046;3.732;2023-06-22T11:20:59;21.48;;;16.98;;
23072;SDS011;67971;51.046;3.732;2023-06-22T11:23:25;20.48;;;14.48;;
23072;SDS011;67971;51.046;3.732;2023-06-22T11:25:52;21.27;;;13.77;;
23072;SDS011;67971;51.046;3.732;2023-06-22T11:28:18;17.25;;;12.82;;
23072;SDS011;67971;51.046;3.732;2023-06-22T11:30:43;14.13;;;12.10;;
23072;SDS011;67971;51.046;3.732;2023-06-22T11:33:09;11.70;;;10.30;;
23072;SDS011;67971;51.046;3.732;2023-06-22T11:35:35;11.77;;;9.27;;
23072;SDS011;67971;51.046;3.732;2023-06-22T11:38:00;14.45;;;9.50;;
23072;SDS011;67971;51.046;3.732;2023-06-22T11:40:28;12.02;;;10.25;;
23072;SDS011;67971;51.046;3.732;2023-06-22T11:42:54;14.50;;;9.00;;
23072;SDS011;67971;51.046;3.732;2023-06-22T11:45:19;11.20;;;8.73;;
23072;SDS011;67971;51.046;3.732;2023-06-22T11:47:45;13.18;;;8.77;;
23072;SDS011;67971;51.046;3.732;2023-06-22T11:50:11;13.43;;;9.23;;
23072;SDS011;67971;51.046;3.732;2023-06-22T11:52:37;15.18;;;9.23;;
23072;SDS011;67971;51.046;3.732;2023-06-22T11:55:03;18.65;;;9.18;;
23072;SDS011;67971;51.046;3.732;2023-06-22T11:57:32;18.98;;;10.23;;
23072;SDS011;67971;51.046;3.732;2023-06-22T11:59:59;18.77;;;9.82;;
23072;SDS011;67971;51.046;3.732;2023-06-22T12:02:25;19.42;;;10.63;;
23072;SDS011;67971;51.046;3.732;2023-06-22T12:04:50;20.35;;;10.80;;
23072;SDS011;67971;51.046;3.732;2023-06-22T12:07:17;14.93;;;10.82;;
23072;SDS011;67971;51.046;3.732;2023-06-22T12:09:43;13.55;;;10.23;;
23072;SDS011;67971;51.046;3.732;2023-06-22T12:12:09;15.65;;;10.35;;
23072;SDS011;67971;51.046;3.732;2023-06-22T12:14:35;17.67;;;10.43;;
23072;SDS011;67971;51.046;3.732;2023-06-22T12:17:00;32.47;;;11.77;;
23072;SDS011;67971;51.046;3.732;2023-06-22T12:19:26;13.55;;;10.82;;
23072;SDS011;67971;51.046;3.732;2023-06-22T12:21:52;18.73;;;11.25;;
23072;SDS011;67971;51.046;3.732;2023-06-22T12:24:17;14.25;;;10.23;;
23072;SDS011;67971;51.046;3.732;2023-06-22T12:26:43;25.50;;;12.25;;
23072;SDS011;67971;51.046;3.732;2023-06-22T12:29:09;23.98;;;13.52;;
23072;SDS011;67971;51.046;3.732;2023-06-22T12:31:35;21.90;;;13.50;;
23072;SDS011;67971;51.046;3.732;2023-06-22T12:34:03;26.05;;;15.10;;
23072;SDS011;67971;51.046;3.732;2023-06-22T12:36:29;27.30;;;18.35;;
23072;SDS011;67971;51.046;3.732;2023-06-22T12:38:55;28.48;;;17.25;;
23072;SDS011;67971;51.046;3.732;2023-06-22T12:41:20;27.75;;;18.58;;
23072;SDS011;67971;51.046;3.732;2023-06-22T12:43:46;27.95;;;18.75;;
23072;SDS011;67971;51.046;3.732;2023-06-22T12:46:12;24.83;;;17.85;;
23072;SDS011;67971;51.046;3.732;2023-06-22T12:48:37;23.75;;;18.13;;
23072;SDS011;67971;51.046;3.732;2023-06-22T12:51:07;22.48;;;15.88;;
23072;SDS011;67971;51.046;3.732;2023-06-22T12:53:34;19.60;;;14.68;;
23072;SDS011;67971;51.046;3.732;2023-06-22T12:56:00;21.83;;;14.32;;
23072;SDS011;67971;51.046;3.732;2023-06-22T12:58:26;21.67;;;14.77;;
23072;SDS011;67971;51.046;3.732;2023-06-22T13:00:52;22.08;;;14.35;;
23072;SDS011;67971;51.046;3.732;2023-06-22T13:03:18;17.98;;;16.05;;
23072;SDS011;67971;51.046;3.732;2023-06-22T13:05:44;21.30;;;16.73;;
23072;SDS011;67971;51.046;3.732;2023-06-22T13:08:09;25.08;;;17.58;;
23072;SDS011;67971;51.046;3.732;2023-06-22T13:10:36;34.47;;;19.50;;
23072;SDS011;67971;51.046;3.732;2023-06-22T13:13:01;28.38;;;21.25;;
23072;SDS011;67971;51.046;3.732;2023-06-22T13:15:27;33.70;;;21.00;;
23072;SDS011;67971;51.046;3.732;2023-06-22T13:17:54;28.73;;;21.15;;
23072;SDS011;67971;51.046;3.732;2023-06-22T13:20:20;28.52;;;21.02;;
23072;SDS011;67971;51.046;3.732;2023-06-22T13:22:45;31.25;;;21.98;;
23072;SDS011;67971;51.046;3.732;2023-06-22T13:25:11;29.83;;;21.63;;
23072;SDS011;67971;51.046;3.732;2023-06-22T13:27:41;34.00;;;21.95;;
23072;SDS011;67971;51.046;3.732;2023-06-22T13:30:07;31.55;;;22.63;;
23072;SDS011;67971;51.046;3.732;2023-06-22T13:32:34;26.33;;;21.55;;
23072;SDS011;67971;51.046;3.732;2023-06-22T13:34:59;26.35;;;21.50;;
23072;SDS011;67971;51.046;3.732;2023-06-22T13:37:25;27.65;;;21.95;;
23072;SDS011;67971;51.046;3.732;2023-06-22T13:39:52;33.95;;;22.80;;
23072;SDS011;67971;51.046;3.732;2023-06-22T13:42:18;30.30;;;23.33;;
23072;SDS011;67971;51.046;3.732;2023-06-22T13:44:43;33.47;;;25.38;;
23072;SDS011;67971;51.046;3.732;2023-06-22T13:47:09;32.45;;;25.23;;
23072;SDS011;67971;51.046;3.732;2023-06-22T13:49:35;29.27;;;24.08;;
23072;SDS011;67971;51.046;3.732;2023-06-22T13:52:00;31.20;;;24.80;;
23072;SDS011;67971;51.046;3.732;2023-06-22T13:54:28;28.45;;;23.05;;
23072;SDS011;67971;51.046;3.732;2023-06-22T13:56:54;29.27;;;22.73;;
23072;SDS011;67971;51.046;3.732;2023-06-22T13:59:19;34.88;;;22.98;;
23072;SDS011;67971;51.046;3.732;2023-06-22T14:01:46;25.63;;;20.80;;
23072;SDS011;67971;51.046;3.732;2023-06-22T14:04:11;29.55;;;19.58;;
23072;SDS011;67971;51.046;3.732;2023-06-22T14:06:37;25.02;;;20.70;;
23072;SDS011;67971;51.046;3.732;2023-06-22T14:09:03;24.70;;;20.02;;
23072;SDS011;67971;51.046;3.732;2023-06-22T14:11:29;26.95;;;20.67;;
23072;SDS011;67971;51.046;3.732;2023-06-22T14:13:54;29.33;;;21.60;;
23072;SDS011;67971;51.046;3.732;2023-06-22T14:16:20;33.40;;;21.67;;
23072;SDS011;67971;51.046;3.732;2023-06-22T14:18:46;26.25;;;22.48;;
23072;SDS011;67971;51.046;3.732;2023-06-22T14:21:11;31.30;;;24.25;;
23072;SDS011;67971;51.046;3.732;2023-06-22T14:23:37;30.65;;;25.33;;
23072;SDS011;67971;51.046;3.732;2023-06-22T14:26:03;31.33;;;25.05;;
23072;SDS011;67971;51.046;3.732;2023-06-22T14:28:29;32.95;;;25.75;;
23072;SDS011;67971;51.046;3.732;2023-06-22T14:30:54;30.23;;;25.48;;
23072;SDS011;67971;51.046;3.732;2023-06-22T14:33:21;32.40;;;25.95;;